createdAt,value
2023-02-01T00:00:47.340Z,4.45
2023-02-01T00:03:15.726Z,4.52
2023-02-01T00:05:56.379Z,4.58
2023-02-01T00:08:24.645Z,4.62
2023-02-01T00:11:00.243Z,4.66
2023-02-01T00:13:31.567Z,4.69
2023-02-01T00:16:06.078Z,4.71
2023-02-01T00:18:34.579Z,4.74
2023-02-01T00:21:06.776Z,4.76
2023-02-01T00:23:35.828Z,4.78
2023-02-01T00:26:04.356Z,4.82
2023-02-01T00:28:33.266Z,4.86
2023-02-01T00:31:04.846Z,4.92
2023-02-01T00:33:34.414Z,4.99
2023-02-01T00:36:05.583Z,5.06
2023-02-01T00:38:34.860Z,5.10
2023-02-01T00:41:08.145Z,5.14
2023-02-01T00:43:36.576Z,5.18
2023-02-01T00:46:05.067Z,5.21
2023-02-01T00:48:33.569Z,5.26
2023-02-01T00:51:03.662Z,5.30
2023-02-01T00:53:32.053Z,5.32
2023-02-01T00:56:00.368Z,5.35
2023-02-01T00:58:29.020Z,5.38
2023-02-01T01:01:05.011Z,5.38
2023-02-01T01:03:35.282Z,5.41
2023-02-01T01:06:07.141Z,5.47
2023-02-01T01:08:37.319Z,5.50
2023-02-01T01:11:10.008Z,5.54
2023-02-01T01:13:38.522Z,5.57
2023-02-01T01:16:08.280Z,5.56
2023-02-01T01:18:39.025Z,5.58
2023-02-01T01:21:09.441Z,5.59
2023-02-01T01:23:37.869Z,5.62
2023-02-01T01:26:09.862Z,5.62
2023-02-01T01:28:38.639Z,5.59
2023-02-01T01:31:10.442Z,5.59
2023-02-01T01:33:38.849Z,5.59
2023-02-01T01:36:11.051Z,5.57
2023-02-01T01:38:39.846Z,5.59
2023-02-01T01:41:08.415Z,5.62
2023-02-01T01:43:51.166Z,5.66
2023-02-01T01:46:20.684Z,5.69
2023-02-01T01:48:52.145Z,5.72
2023-02-01T01:51:23.133Z,5.76
2023-02-01T01:53:55.906Z,5.79
2023-02-01T01:56:24.311Z,5.80
2023-02-01T01:58:52.404Z,5.81
2023-02-01T02:01:20.620Z,5.81
2023-02-01T02:03:49.527Z,5.81
2023-02-01T02:06:23.679Z,5.80
2023-02-01T02:08:53.472Z,5.80
2023-02-01T02:11:21.561Z,5.81
2023-02-01T02:13:51.893Z,5.82
2023-02-01T02:16:30.708Z,5.87
2023-02-01T02:19:09.612Z,5.87
2023-02-01T02:21:59.634Z,5.88
2023-02-01T02:24:45.796Z,5.89
2023-02-01T02:27:26.637Z,5.90
2023-02-01T02:30:39.742Z,5.92
2023-02-01T02:33:43.494Z,5.91
2023-02-01T02:36:17.108Z,5.90
2023-02-01T02:38:51.375Z,5.92
2023-02-01T02:41:36.402Z,5.91
2023-02-01T02:44:29.167Z,5.90
2023-02-01T02:47:19.211Z,5.90
2023-02-01T02:50:14.216Z,5.89
2023-02-01T02:53:05.338Z,5.92
2023-02-01T02:55:36.537Z,5.95
2023-02-01T02:58:24.496Z,5.95
2023-02-01T03:01:11.142Z,5.94
2023-02-01T03:03:57.332Z,5.95
2023-02-01T03:06:27.670Z,5.96
2023-02-01T03:08:59.817Z,5.96
2023-02-01T03:11:49.593Z,6.00
2023-02-01T03:14:18.142Z,6.06
2023-02-01T03:16:50.617Z,6.07
2023-02-01T03:19:23.276Z,6.09
2023-02-01T03:24:33.989Z,6.16
2023-02-01T03:27:07.315Z,6.18
2023-02-01T03:29:40.306Z,6.17
2023-02-01T03:32:08.591Z,6.18
2023-02-01T03:34:36.746Z,6.20
2023-02-01T03:37:08.655Z,6.20
2023-02-01T03:39:40.311Z,6.20
2023-02-01T03:44:46.192Z,6.23
2023-02-01T03:47:17.557Z,6.23
2023-02-01T03:49:48.796Z,6.24
2023-02-01T03:52:22.392Z,6.22
2023-02-01T03:54:51.642Z,6.14
2023-02-01T03:57:24.052Z,6.03
2023-02-01T03:59:52.230Z,5.93
2023-02-01T04:02:20.334Z,5.80
2023-02-01T04:04:48.553Z,5.70
2023-02-01T04:07:18.065Z,5.59
2023-02-01T04:09:46.136Z,5.51
2023-02-01T04:12:14.218Z,5.43
2023-02-01T04:14:42.321Z,5.39
2023-02-01T04:17:10.456Z,5.33
2023-02-01T04:19:38.545Z,5.27
2023-02-01T04:22:06.675Z,5.23
2023-02-01T04:24:37.403Z,5.21
2023-02-01T04:27:05.565Z,5.19
2023-02-01T04:29:33.660Z,5.16
2023-02-01T04:32:01.888Z,5.16
2023-02-01T04:34:29.964Z,5.14
2023-02-01T04:36:58.069Z,5.14
2023-02-01T04:39:26.167Z,5.12
2023-02-01T04:41:55.607Z,5.11
2023-02-01T04:44:23.833Z,5.09
2023-02-01T04:46:51.951Z,5.07
2023-02-01T04:49:21.094Z,5.05
2023-02-01T04:51:49.718Z,5.01
2023-02-01T04:54:17.837Z,4.98
2023-02-01T04:56:45.960Z,4.97
2023-02-01T04:59:17.959Z,4.97
2023-02-01T05:01:48.563Z,4.97
2023-02-01T05:04:19.545Z,4.98
2023-02-01T05:06:48.025Z,4.97
2023-02-01T05:09:16.077Z,4.96
2023-02-01T05:12:01.643Z,4.93
2023-02-01T05:14:31.204Z,4.91
2023-02-01T05:16:59.270Z,4.90
2023-02-01T05:19:27.428Z,4.90
2023-02-01T05:21:55.540Z,4.90
2023-02-01T05:24:23.637Z,4.92
2023-02-01T05:26:52.012Z,4.93
2023-02-01T05:29:20.262Z,4.94
2023-02-01T05:31:50.155Z,4.97
2023-02-01T05:34:18.357Z,4.98
2023-02-01T05:36:46.467Z,5.01
2023-02-01T05:39:14.574Z,5.02
2023-02-01T05:41:42.723Z,5.04
2023-02-01T05:44:12.411Z,5.07
2023-02-01T05:46:40.722Z,5.09
2023-02-01T05:49:10.288Z,5.12
2023-02-01T05:51:38.672Z,5.14
2023-02-01T05:54:06.863Z,5.15
2023-02-01T05:56:34.969Z,5.15
2023-02-01T05:59:03.095Z,5.14
2023-02-01T06:01:31.269Z,5.10
2023-02-01T06:03:59.397Z,5.08
2023-02-01T06:06:29.639Z,5.08
2023-02-01T06:08:57.736Z,5.09
2023-02-01T06:11:32.495Z,5.07
2023-02-01T06:14:01.371Z,5.07
2023-02-01T06:16:29.820Z,5.06
2023-02-01T06:18:57.912Z,5.05
2023-02-01T06:21:26.047Z,5.03
2023-02-01T06:23:58.471Z,4.98
2023-02-01T06:26:26.753Z,4.97
2023-02-01T06:28:54.826Z,4.94
2023-02-01T06:31:23.032Z,4.92
2023-02-01T06:33:51.349Z,4.91
2023-02-01T06:36:21.679Z,4.91
2023-02-01T06:38:50.091Z,4.91
2023-02-01T06:41:21.514Z,4.89
2023-02-01T06:43:49.596Z,4.88
2023-02-01T06:46:17.721Z,4.86
2023-02-01T06:48:46.984Z,4.84
2023-02-01T06:51:22.989Z,4.82
2023-02-01T06:53:51.116Z,4.82
2023-02-01T06:56:21.693Z,4.82
2023-02-01T06:58:50.189Z,4.84
2023-02-01T07:01:18.812Z,4.87
2023-02-01T07:03:49.674Z,4.89
2023-02-01T07:06:17.915Z,4.90
2023-02-01T07:08:46.210Z,4.91
2023-02-01T07:11:15.756Z,4.92
2023-02-01T07:13:45.563Z,4.93
2023-02-01T07:16:16.192Z,4.97
2023-02-01T07:18:44.551Z,5.00
2023-02-01T07:21:12.638Z,5.05
2023-02-01T07:23:40.869Z,5.09
2023-02-01T07:26:09.848Z,5.14
2023-02-01T07:28:38.698Z,5.17
2023-02-01T07:31:09.621Z,5.19
2023-02-01T07:33:37.938Z,5.24
2023-02-01T07:36:08.373Z,5.29
2023-02-01T07:38:36.660Z,5.38
2023-02-01T07:41:06.484Z,5.44
2023-02-01T07:43:35.234Z,5.50
2023-02-01T07:46:04.248Z,5.52
2023-02-01T07:48:35.105Z,5.55
2023-02-01T07:51:05.107Z,5.59
2023-02-01T07:53:34.527Z,5.64
2023-02-01T07:56:03.341Z,5.68
2023-02-01T07:58:31.757Z,5.73
2023-02-01T08:01:17.380Z,5.80
2023-02-01T08:03:47.616Z,5.85
2023-02-01T08:06:15.800Z,5.86
2023-02-01T08:08:46.212Z,5.84
2023-02-01T08:11:15.508Z,5.83
2023-02-01T08:13:44.227Z,5.81
2023-02-01T08:16:13.737Z,5.79
2023-02-01T08:18:42.908Z,5.74
2023-02-01T08:21:13.945Z,5.69
2023-02-01T08:23:43.807Z,5.64
2023-02-01T08:26:13.721Z,5.63
2023-02-01T08:28:43.674Z,5.63
2023-02-01T08:31:15.770Z,5.68
2023-02-01T08:33:45.152Z,5.72
2023-02-01T08:36:14.669Z,5.77
2023-02-01T08:38:42.803Z,5.85
2023-02-01T08:41:13.040Z,5.94
2023-02-01T08:43:41.693Z,6.02
2023-02-01T08:46:10.825Z,6.05
2023-02-01T08:48:39.710Z,6.02
2023-02-01T08:51:10.110Z,5.99
2023-02-01T08:53:41.222Z,5.90
2023-02-01T08:56:09.804Z,5.86
2023-02-01T08:58:38.119Z,5.85
2023-02-01T09:01:06.761Z,5.90
2023-02-01T09:03:35.327Z,6.00
2023-02-01T09:06:03.861Z,6.09
2023-02-01T09:08:32.419Z,6.20
2023-02-01T09:11:03.665Z,6.28
2023-02-01T09:13:32.484Z,6.39
2023-02-01T09:16:01.175Z,6.54
2023-02-01T09:18:29.535Z,6.65
2023-02-01T09:20:57.755Z,6.70
2023-02-01T09:23:26.131Z,6.76
2023-02-01T09:25:54.357Z,6.86
2023-02-01T09:28:23.874Z,6.95
2023-02-01T09:30:52.237Z,7.04
2023-02-01T09:33:22.318Z,7.09
2023-02-01T09:35:50.499Z,7.11
2023-02-01T09:38:18.622Z,7.11
2023-02-01T09:40:49.205Z,7.12
2023-02-01T09:43:27.373Z,7.11
2023-02-01T09:46:01.699Z,7.12
2023-02-01T09:48:33.213Z,7.16
2023-02-01T09:51:04.699Z,7.23
2023-02-01T09:53:36.521Z,7.26
2023-02-01T09:56:07.451Z,7.24
2023-02-01T09:58:39.679Z,7.30
2023-02-01T10:01:15.795Z,7.37
2023-02-01T10:03:44.060Z,7.42
2023-02-01T10:06:31.171Z,7.53
2023-02-01T10:09:32.320Z,7.74
2023-02-01T10:12:18.973Z,7.90
2023-02-01T10:14:56.025Z,8.02
2023-02-01T10:17:39.759Z,8.08
2023-02-01T10:20:15.491Z,8.06
2023-02-01T10:23:11.476Z,7.96
2023-02-01T10:25:38.313Z,7.84
2023-02-01T10:28:06.473Z,7.75
2023-02-01T10:30:41.703Z,7.69
2023-02-01T10:33:17.528Z,7.66
2023-02-01T10:35:47.440Z,7.66
2023-02-01T10:38:22.434Z,7.65
2023-02-01T10:40:51.540Z,7.63
2023-02-01T10:43:19.941Z,7.69
2023-02-01T10:45:49.477Z,7.82
2023-02-01T10:48:17.891Z,7.83
2023-02-01T10:50:50.999Z,7.78
2023-02-01T10:53:23.823Z,7.74
2023-02-01T10:55:53.504Z,7.71
2023-02-01T10:58:23.467Z,7.71
2023-02-01T11:00:55.991Z,7.68
2023-02-01T11:03:43.313Z,7.67
2023-02-01T11:06:18.762Z,7.67
2023-02-01T11:08:52.923Z,7.61
2023-02-01T11:11:21.963Z,7.56
2023-02-01T11:13:56.147Z,7.52
2023-02-01T11:16:36.173Z,7.49
2023-02-01T11:19:04.777Z,7.47
2023-02-01T11:21:33.650Z,7.49
2023-02-01T11:24:04.392Z,7.53
2023-02-01T11:26:33.963Z,7.58
2023-02-01T11:29:05.004Z,7.65
2023-02-01T11:31:36.202Z,7.75
2023-02-01T11:34:09.794Z,7.80
2023-02-01T11:36:38.840Z,7.81
2023-02-01T11:39:20.086Z,7.83
2023-02-01T11:41:58.969Z,7.80
2023-02-01T11:44:32.411Z,7.79
2023-02-01T11:49:54.751Z,7.79
2023-02-01T11:52:50.106Z,7.78
2023-02-01T11:55:50.985Z,7.75
2023-02-01T11:58:29.988Z,7.74
2023-02-01T12:01:11.663Z,7.70
2023-02-01T12:04:09.637Z,7.66
2023-02-01T12:06:48.020Z,7.57
2023-02-01T12:09:32.704Z,7.37
2023-02-01T12:12:05.575Z,7.06
2023-02-01T12:14:46.309Z,6.78
2023-02-01T12:17:52.849Z,6.52
2023-02-01T12:20:31.119Z,6.29
2023-02-01T12:23:13.681Z,6.11
2023-02-01T12:25:56.353Z,6.01
2023-02-01T12:28:47.700Z,5.95
2023-02-01T12:31:39.718Z,5.93
2023-02-01T12:34:24.017Z,5.95
2023-02-01T12:36:58.258Z,5.99
2023-02-01T12:39:33.403Z,6.04
2023-02-01T12:42:05.686Z,6.11
2023-02-01T12:44:40.176Z,6.12
2023-02-01T12:47:14.743Z,6.18
2023-02-01T12:49:50.704Z,6.26
2023-02-01T12:52:29.927Z,6.30
2023-02-01T12:55:03.157Z,6.32
2023-02-01T12:57:33.963Z,6.33
2023-02-01T13:00:10.807Z,6.35
2023-02-01T13:02:44.637Z,6.38
2023-02-01T13:05:20.138Z,6.41
2023-02-01T13:07:53.954Z,6.45
2023-02-01T13:10:37.401Z,6.52
2023-02-01T13:13:12.908Z,6.56
2023-02-01T13:15:44.741Z,6.61
2023-02-01T13:18:21.479Z,6.80
2023-02-01T13:20:55.405Z,7.05
2023-02-01T13:23:28.312Z,7.25
2023-02-01T13:25:58.088Z,7.30
2023-02-01T13:28:30.143Z,7.23
2023-02-01T13:31:29.703Z,7.21
2023-02-01T13:34:12.255Z,7.11
2023-02-01T13:36:53.107Z,7.03
2023-02-01T13:39:36.132Z,7.04
2023-02-01T13:42:07.446Z,7.02
2023-02-01T13:44:40.410Z,7.02
2023-02-01T13:47:18.956Z,7.00
2023-02-01T13:49:47.142Z,7.08
2023-02-01T13:52:42.804Z,7.19
2023-02-01T13:55:35.453Z,7.18
2023-02-01T13:58:19.614Z,7.21
2023-02-01T14:00:48.842Z,7.19
2023-02-01T14:03:19.712Z,7.22
2023-02-01T14:06:15.953Z,7.27
2023-02-01T14:09:07.592Z,7.45
2023-02-01T14:11:39.256Z,7.61
2023-02-01T14:14:46.998Z,7.53
2023-02-01T14:17:43.494Z,7.41
2023-02-01T14:20:46.507Z,7.37
2023-02-01T14:23:25.827Z,7.30
2023-02-01T14:26:12.381Z,7.25
2023-02-01T14:28:51.563Z,7.16
2023-02-01T14:31:39.824Z,7.08
2023-02-01T14:34:16.645Z,6.99
2023-02-01T14:36:49.094Z,6.94
2023-02-01T14:39:27.164Z,6.91
2023-02-01T14:41:59.925Z,6.94
2023-02-01T14:44:38.273Z,6.92
2023-02-01T14:47:34.093Z,6.92
2023-02-01T14:50:27.176Z,6.87
2023-02-01T14:53:22.968Z,6.76
2023-02-01T14:55:53.422Z,6.69
2023-02-01T14:58:34.639Z,6.66
2023-02-01T15:01:05.074Z,6.59
2023-02-01T15:03:49.998Z,6.57
2023-02-01T15:06:27.470Z,6.53
2023-02-01T15:08:58.641Z,6.50
2023-02-01T15:11:26.825Z,6.49
2023-02-01T15:13:57.207Z,6.52
2023-02-01T15:16:26.770Z,6.54
2023-02-01T15:19:10.809Z,6.51
2023-02-01T15:21:49.025Z,6.53
2023-02-01T15:24:22.312Z,6.55
2023-02-01T15:26:50.813Z,6.57
2023-02-01T15:29:19.356Z,6.59
2023-02-01T15:31:49.197Z,6.58
2023-02-01T15:34:17.768Z,6.60
2023-02-01T15:37:01.503Z,6.61
2023-02-01T15:39:32.473Z,6.63
2023-02-01T15:42:04.310Z,6.66
2023-02-01T15:44:41.243Z,6.66
2023-02-01T15:47:15.726Z,6.66
2023-02-01T15:49:45.534Z,6.64
2023-02-01T15:52:28.911Z,6.63
2023-02-01T15:54:59.539Z,6.63
2023-02-01T15:57:32.473Z,6.62
2023-02-01T16:00:02.211Z,6.63
2023-02-01T16:02:35.807Z,6.63
2023-02-01T16:05:05.153Z,6.67
2023-02-01T16:07:36.356Z,6.71
2023-02-01T16:10:22.654Z,6.70
2023-02-01T16:12:52.218Z,6.70
2023-02-01T16:15:20.309Z,6.70
2023-02-01T16:17:48.607Z,6.71
2023-02-01T16:20:16.729Z,6.71
2023-02-01T16:22:46.223Z,6.70
2023-02-01T16:25:14.355Z,6.71
2023-02-01T16:27:42.490Z,6.73
2023-02-01T16:30:12.524Z,6.74
2023-02-01T16:32:40.885Z,6.77
2023-02-01T16:35:19.935Z,6.78
2023-02-01T16:37:49.428Z,6.80
2023-02-01T16:40:18.384Z,6.82
2023-02-01T16:42:47.483Z,6.83
2023-02-01T16:45:15.702Z,6.85
2023-02-01T16:47:47.616Z,6.86
2023-02-01T16:50:23.677Z,6.86
2023-02-01T16:52:54.291Z,6.87
2023-02-01T16:55:23.940Z,6.88
2023-02-01T16:57:52.624Z,6.91
2023-02-01T17:00:24.869Z,6.92
2023-02-01T17:02:53.754Z,6.95
2023-02-01T17:05:22.487Z,6.95
2023-02-01T17:07:51.236Z,6.93
2023-02-01T17:10:34.034Z,6.94
2023-02-01T17:13:03.770Z,6.95
2023-02-01T17:15:37.338Z,6.94
2023-02-01T17:18:05.693Z,6.94
2023-02-01T17:20:33.945Z,6.94
2023-02-01T17:23:02.219Z,6.94
2023-02-01T17:25:32.827Z,6.94
2023-02-01T17:28:01.164Z,6.94
2023-02-01T17:30:29.379Z,6.91
2023-02-01T17:32:57.650Z,6.81
2023-02-01T17:35:28.588Z,6.75
2023-02-01T17:37:57.814Z,6.69
2023-02-01T17:40:26.113Z,6.64
2023-02-01T17:42:57.942Z,6.56
2023-02-01T17:45:36.449Z,6.52
2023-02-01T17:48:06.003Z,6.49
2023-02-01T17:50:36.126Z,6.48
2023-02-01T17:53:06.046Z,6.47
2023-02-01T17:55:36.380Z,6.49
2023-02-01T17:58:05.968Z,6.48
2023-02-01T18:00:36.020Z,6.45
2023-02-01T18:03:05.099Z,6.47
2023-02-01T18:05:40.487Z,6.48
2023-02-01T18:08:09.075Z,6.53
2023-02-01T18:10:37.619Z,6.56
2023-02-01T18:13:07.065Z,6.56
2023-02-01T18:15:36.116Z,6.58
2023-02-01T18:18:04.398Z,6.58
2023-02-01T18:20:32.559Z,6.58
2023-02-01T18:23:00.870Z,6.54
2023-02-01T18:25:30.780Z,6.51
2023-02-01T18:27:58.929Z,6.44
2023-02-01T18:30:31.962Z,6.39
2023-02-01T18:33:00.222Z,6.39
2023-02-01T18:35:30.012Z,6.35
2023-02-01T18:37:58.586Z,6.32
2023-02-01T18:40:28.749Z,6.29
2023-02-01T18:42:58.131Z,6.25
2023-02-01T18:45:31.909Z,6.22
2023-02-01T18:48:00.795Z,6.17
2023-02-01T18:50:30.267Z,6.11
2023-02-01T18:53:00.238Z,6.05
2023-02-01T18:55:29.372Z,6.01
2023-02-01T18:57:57.464Z,5.96
2023-02-01T19:00:25.639Z,5.92
2023-02-01T19:02:55.352Z,5.88
2023-02-01T19:05:23.934Z,5.86
2023-02-01T19:07:52.288Z,5.86
2023-02-01T19:10:22.433Z,5.86
2023-02-01T19:12:50.714Z,5.82
2023-02-01T19:15:19.702Z,5.78
2023-02-01T19:17:49.186Z,5.75
2023-02-01T19:20:20.353Z,5.73
2023-02-01T19:22:48.974Z,5.71
2023-02-01T19:25:19.573Z,5.66
2023-02-01T19:27:47.975Z,5.65
2023-02-01T19:30:17.361Z,5.65
2023-02-01T19:32:45.559Z,5.65
2023-02-01T19:35:15.159Z,5.67
2023-02-01T19:37:44.843Z,5.69
2023-02-01T19:40:19.363Z,5.71
2023-02-01T19:42:47.924Z,5.73
2023-02-01T19:45:16.698Z,5.73
2023-02-01T19:47:44.957Z,5.75
2023-02-01T19:50:17.933Z,5.79
2023-02-01T19:52:47.619Z,5.84
2023-02-01T19:55:16.168Z,5.90
2023-02-01T19:57:44.871Z,5.95
2023-02-01T20:00:13.449Z,5.99
2023-02-01T20:02:41.589Z,6.04
2023-02-01T20:05:11.777Z,6.09
2023-02-01T20:07:40.102Z,6.12
2023-02-01T20:10:11.201Z,6.17
2023-02-01T20:12:40.181Z,6.22
2023-02-01T20:15:09.071Z,6.23
2023-02-01T20:17:37.325Z,6.28
2023-02-01T20:20:06.063Z,6.33
2023-02-01T20:22:34.207Z,6.36
2023-02-01T20:25:03.768Z,6.40
2023-02-01T20:27:34.186Z,6.43
2023-02-01T20:30:02.413Z,6.44
2023-02-01T20:32:30.477Z,6.47
2023-02-01T20:34:58.648Z,6.49
2023-02-01T20:37:26.738Z,6.51
2023-02-01T20:39:54.835Z,6.57
2023-02-01T20:42:22.924Z,6.59
2023-02-01T20:44:52.368Z,6.59
2023-02-01T20:47:20.436Z,6.63
2023-02-01T20:49:48.495Z,6.65
2023-02-01T20:52:16.587Z,6.68
2023-02-01T20:54:44.685Z,6.70
2023-02-01T20:57:12.833Z,6.70
2023-02-01T20:59:40.919Z,6.69
2023-02-01T21:02:11.330Z,6.65
2023-02-01T21:04:39.458Z,6.63
2023-02-01T21:07:07.529Z,6.62
2023-02-01T21:09:35.578Z,6.61
2023-02-01T21:12:03.659Z,6.60
2023-02-01T21:14:31.739Z,6.60
2023-02-01T21:16:59.830Z,6.60
2023-02-01T21:19:29.269Z,6.62
2023-02-01T21:21:57.359Z,6.63
2023-02-01T21:24:25.418Z,6.65
2023-02-01T21:26:53.594Z,6.67
2023-02-01T21:29:21.817Z,6.68
2023-02-01T21:31:49.988Z,6.67
2023-02-01T21:34:18.090Z,6.66
2023-02-01T21:36:47.569Z,6.67
2023-02-01T21:39:17.020Z,6.67
2023-02-01T21:42:02.785Z,6.68
2023-02-01T21:44:30.987Z,6.69
2023-02-01T21:46:59.082Z,6.69
2023-02-01T21:49:29.045Z,6.70
2023-02-01T21:51:58.956Z,6.72
2023-02-01T21:54:27.038Z,6.72
2023-02-01T21:56:55.164Z,6.71
2023-02-01T21:59:23.216Z,6.73
2023-02-01T22:01:51.325Z,6.75
2023-02-01T22:04:19.457Z,6.76
2023-02-01T22:06:47.566Z,6.76
2023-02-01T22:09:21.307Z,6.74
2023-02-01T22:11:49.867Z,6.76
2023-02-01T22:14:18.357Z,6.77
2023-02-01T22:16:46.650Z,6.79
2023-02-01T22:19:15.047Z,6.77
2023-02-01T22:21:45.621Z,6.76
2023-02-01T22:24:15.419Z,6.79
2023-02-01T22:26:45.520Z,6.78
2023-02-01T22:29:14.728Z,6.77
2023-02-01T22:31:43.417Z,6.78
2023-02-01T22:34:12.571Z,6.77
2023-02-01T22:36:40.753Z,6.81
2023-02-01T22:39:09.143Z,6.82
2023-02-01T22:41:37.257Z,6.83
2023-02-01T22:44:07.099Z,6.81
2023-02-01T22:46:35.218Z,6.79
2023-02-01T22:49:04.080Z,6.77
2023-02-01T22:51:33.299Z,6.77
2023-02-01T22:54:01.792Z,6.78
2023-02-01T22:56:31.408Z,6.77
2023-02-01T22:59:00.989Z,6.79
2023-02-01T23:01:30.702Z,6.76
2023-02-01T23:03:59.493Z,6.72
2023-02-01T23:06:27.880Z,6.68
2023-02-01T23:08:57.270Z,6.66
2023-02-01T23:11:25.992Z,6.66
2023-02-01T23:13:54.587Z,6.66
2023-02-01T23:16:23.142Z,6.64
2023-02-01T23:18:52.684Z,6.63
2023-02-01T23:21:22.133Z,6.63
2023-02-01T23:23:51.289Z,6.61
2023-02-01T23:26:20.615Z,6.59
2023-02-01T23:28:50.611Z,6.57
2023-02-01T23:31:18.865Z,6.52
2023-02-01T23:33:49.008Z,6.47
2023-02-01T23:36:18.526Z,6.45
2023-02-01T23:38:47.348Z,6.41
2023-02-01T23:41:16.749Z,6.40
2023-02-01T23:44:00.038Z,6.37
2023-02-01T23:46:31.143Z,6.34
2023-02-01T23:48:59.891Z,6.35
2023-02-01T23:51:30.040Z,6.34
2023-02-01T23:53:58.581Z,6.33
2023-02-01T23:56:28.332Z,6.29
2023-02-01T23:58:56.938Z,6.25
